Time;durP1;ratioP1;P1;durP2;ratioP2;P2;SDS_P1;SDS_P2;PMS_P1;PMS_P2;Temp;Humidity;BMP_temperature;BMP_pressure;BME280_temperature;BME280_humidity;BME280_pressure;Samples;Min_cycle;Max_cycle;Signal;HPM_P1;HPM_P2
2021/10/22 00:00:23;;;;;;;;;;;15.60;99.90;;;;;;2074997;28;626;-57
2021/10/22 00:01:42;;;;;;;;;;;15.60;99.90;;;;;;2074315;28;734;-56
2021/10/22 00:03:01;;;;;;;;;;;15.60;99.90;;;;;;2074820;28;615;-58
2021/10/22 00:04:20;;;;;;;;;;;15.60;99.90;;;;;;2074520;28;1315;-58
2021/10/22 00:05:40;;;;;;;;;;;15.60;99.90;;;;;;2065988;28;719;-59
2021/10/22 00:06:59;;;;;;;;;;;15.60;99.90;;;;;;2070721;28;702;-56
2021/10/22 00:08:18;;;;;;;;;;;15.60;99.90;;;;;;2074547;28;1898;-58
2021/10/22 00:09:37;;;;;;;;;;;15.60;99.90;;;;;;2074873;28;711;-59
2021/10/22 00:10:58;;;;;;;;;;;15.60;99.90;;;;;;2074928;28;688;-58
2021/10/22 00:12:18;;;;;;;;;;;15.60;99.90;;;;;;2074497;28;781;-58
2021/10/22 00:13:37;;;;;;;;;;;15.60;99.90;;;;;;2074116;28;614;-58
2021/10/22 00:14:57;;;;;;;;;;;15.60;99.90;;;;;;2065845;28;1331;-59
2021/10/22 00:16:17;;;;;;;;;;;15.60;99.90;;;;;;2070368;28;765;-58
2021/10/22 00:17:37;;;;;;;;;;;15.60;99.90;;;;;;2074560;28;602;-58
2021/10/22 00:18:56;;;;;;;;;;;15.50;99.90;;;;;;2073666;28;633;-58
2021/10/22 00:20:16;;;;;;;;;;;15.60;99.90;;;;;;2066093;28;619;-57
2021/10/22 00:21:35;;;;;;;;;;;15.60;99.90;;;;;;2071300;28;619;-55
2021/10/22 00:22:55;;;;;;;;;;;15.50;99.90;;;;;;2065972;28;765;-59
2021/10/22 00:24:14;;;;;;;;;;;15.50;99.90;;;;;;2070677;28;1513;-58
2021/10/22 00:25:33;;;;;;;;;;;15.50;99.90;;;;;;2080973;28;1059;-57
2021/10/22 00:26:54;;;;;;;;;;;15.50;99.90;;;;;;2066490;28;918;-56
2021/10/22 00:28:13;;;;;;;;;;;15.50;99.90;;;;;;2070995;28;1910;-58
2021/10/22 00:29:32;;;;;;;;;;;15.50;99.90;;;;;;2079291;28;810;-57
2021/10/22 00:30:51;;;;;;;;;;;15.50;99.90;;;;;;2082977;28;680;-56
2021/10/22 00:32:11;;;;;;;;;;;15.50;99.90;;;;;;2074199;28;704;-58
2021/10/22 00:33:30;;;;;;;;;;;15.50;99.90;;;;;;2079465;28;746;-58
2021/10/22 00:34:49;;;;;;;;;;;15.50;99.90;;;;;;2074011;28;1393;-59
2021/10/22 00:36:11;;;;;;;;;;;15.50;99.90;;;;;;2078804;28;605;-60
2021/10/22 00:37:30;;;;;;;;;;;15.50;99.90;;;;;;2065649;28;783;-58
2021/10/22 00:38:49;;;;;;;;;;;15.50;99.90;;;;;;2074518;28;752;-58
2021/10/22 00:40:08;;;;;;;;;;;15.50;99.90;;;;;;2082388;28;734;-57
2021/10/22 00:41:27;;;;;;;;;;;15.50;99.90;;;;;;2072326;28;744;-59
2021/10/22 00:42:50;;;;;;;;;;;15.50;99.90;;;;;;2079132;28;680;-58
2021/10/22 00:44:09;;;;;;;;;;;15.50;99.90;;;;;;2072456;28;1471;-59
2021/10/22 00:45:28;;;;;;;;;;;15.50;99.90;;;;;;2070607;28;735;-59
2021/10/22 00:46:48;;;;;;;;;;;15.50;99.90;;;;;;2077652;28;778;-58
2021/10/22 00:48:07;;;;;;;;;;;15.50;99.90;;;;;;2072879;28;1914;-56
2021/10/22 00:49:26;;;;;;;;;;;15.50;99.90;;;;;;2076907;28;783;-58
2021/10/22 00:50:46;;;;;;;;;;;15.40;99.90;;;;;;2073184;28;613;-58
2021/10/22 00:52:05;;;;;;;;;;;15.40;99.90;;;;;;2078563;28;712;-57
2021/10/22 00:53:24;;;;;;;;;;;15.40;99.90;;;;;;2080819;28;713;-57
2021/10/22 00:54:43;;;;;;;;;;;15.50;99.90;;;;;;2075627;28;1400;-59
2021/10/22 00:56:04;;;;;;;;;;;15.50;99.90;;;;;;2067805;28;933;-59
2021/10/22 00:57:24;;;;;;;;;;;15.40;99.90;;;;;;2072838;28;965;-55
2021/10/22 00:58:43;;;;;;;;;;;15.40;99.90;;;;;;2074019;28;709;-58
2021/10/22 01:00:02;;;;;;;;;;;15.40;99.90;;;;;;2073447;28;727;-58
2021/10/22 01:01:21;;;;;;;;;;;15.40;99.90;;;;;;2072725;28;729;-57
2021/10/22 01:02:40;;;;;;;;;;;15.40;99.90;;;;;;2063914;28;767;-58
2021/10/22 01:04:00;;;;;;;;;;;15.40;99.90;;;;;;2069142;28;622;-57
2021/10/22 01:05:20;;;;;;;;;;;15.40;99.90;;;;;;2063406;28;750;-60
2021/10/22 01:06:39;;;;;;;;;;;15.40;99.90;;;;;;2069540;28;673;-55
2021/10/22 01:07:59;;;;;;;;;;;15.40;99.90;;;;;;2064492;28;1969;-57
2021/10/22 01:09:18;;;;;;;;;;;15.40;99.90;;;;;;2065745;28;590;-58
2021/10/22 01:10:38;;;;;;;;;;;15.40;99.90;;;;;;2065721;28;704;-59
2021/10/22 01:11:57;;;;;;;;;;;15.40;99.90;;;;;;2070939;28;693;-58
2021/10/22 01:13:16;;;;;;;;;;;15.40;99.90;;;;;;2074377;28;705;-61
2021/10/22 01:14:36;;;;;;;;;;;15.40;99.90;;;;;;2074302;28;1381;-57
2021/10/22 01:15:55;;;;;;;;;;;15.40;99.90;;;;;;2065451;28;754;-59
2021/10/22 01:17:34;;;;;;;;;;;15.40;99.90;;;;;;2070746;28;715;-56
2021/10/22 01:18:53;;;;;;;;;;;15.40;99.90;;;;;;2070570;28;1258;-58
2021/10/22 01:20:13;;;;;;;;;;;15.40;99.90;;;;;;2078830;28;728;-58
2021/10/22 01:21:32;;;;;;;;;;;15.40;99.90;;;;;;2082286;28;661;-57
2021/10/22 01:22:52;;;;;;;;;;;15.30;99.90;;;;;;2073701;28;999;-56
2021/10/22 01:24:12;;;;;;;;;;;15.40;99.90;;;;;;2077003;28;1386;-59
2021/10/22 01:25:32;;;;;;;;;;;15.30;99.90;;;;;;2079586;28;1246;-58
2021/10/22 01:26:51;;;;;;;;;;;15.30;99.90;;;;;;2065124;28;969;-57
2021/10/22 01:28:11;;;;;;;;;;;15.30;99.90;;;;;;2078877;28;1984;-58
2021/10/22 01:29:30;;;;;;;;;;;15.30;99.90;;;;;;2065476;28;824;-58
2021/10/22 01:30:49;;;;;;;;;;;15.30;99.90;;;;;;2075728;28;685;-57
2021/10/22 01:32:08;;;;;;;;;;;15.30;99.90;;;;;;2072579;28;1430;-58
2021/10/22 01:33:28;;;;;;;;;;;15.30;99.90;;;;;;2065416;28;628;-57
2021/10/22 01:34:47;;;;;;;;;;;15.30;99.90;;;;;;2070322;28;1334;-58
2021/10/22 01:36:07;;;;;;;;;;;15.30;99.90;;;;;;2064906;28;768;-59
2021/10/22 01:37:26;;;;;;;;;;;15.30;99.90;;;;;;2070353;28;932;-58
2021/10/22 01:38:46;;;;;;;;;;;15.30;99.90;;;;;;2074130;28;1079;-58
2021/10/22 01:40:06;;;;;;;;;;;15.30;99.90;;;;;;2080820;28;1020;-56
2021/10/22 01:41:25;;;;;;;;;;;15.30;99.90;;;;;;2073125;28;835;-56
2021/10/22 01:42:44;;;;;;;;;;;15.30;99.90;;;;;;2078238;28;794;-59
2021/10/22 01:44:06;;;;;;;;;;;15.30;99.90;;;;;;2081553;28;720;-59
2021/10/22 01:45:26;;;;;;;;;;;15.30;99.90;;;;;;2073057;28;743;-57
2021/10/22 01:46:45;;;;;;;;;;;15.30;99.90;;;;;;2077801;28;804;-58
2021/10/22 01:48:04;;;;;;;;;;;15.30;99.90;;;;;;2080254;28;1910;-57
2021/10/22 01:49:24;;;;;;;;;;;15.30;99.90;;;;;;2080595;28;778;-57
2021/10/22 01:50:44;;;;;;;;;;;15.30;99.90;;;;;;2081193;28;735;-57
2021/10/22 01:52:04;;;;;;;;;;;15.30;99.90;;;;;;2072973;28;737;-58
2021/10/22 01:53:23;;;;;;;;;;;15.30;99.90;;;;;;2058845;28;1241;-59
2021/10/22 01:54:42;;;;;;;;;;;15.20;99.90;;;;;;2070063;28;1765;-58
2021/10/22 01:56:01;;;;;;;;;;;15.30;99.90;;;;;;2066633;28;1332;-59
2021/10/22 01:57:21;;;;;;;;;;;15.30;99.90;;;;;;2059205;28;1083;-58
2021/10/22 01:58:40;;;;;;;;;;;15.30;99.90;;;;;;2071257;28;1093;-59
2021/10/22 02:00:01;;;;;;;;;;;15.30;99.90;;;;;;2076196;28;1269;-58
2021/10/22 02:01:22;;;;;;;;;;;15.30;99.90;;;;;;2065676;28;1059;-56
2021/10/22 02:02:41;;;;;;;;;;;15.30;99.90;;;;;;2074002;28;1111;-58
2021/10/22 02:04:00;;;;;;;;;;;15.30;99.90;;;;;;2076059;28;1151;-58
2021/10/22 02:05:19;;;;;;;;;;;15.30;99.90;;;;;;2073581;28;1208;-56
2021/10/22 02:06:38;;;;;;;;;;;15.30;99.90;;;;;;2066476;28;1239;-56
2021/10/22 02:07:58;;;;;;;;;;;15.20;99.90;;;;;;2066813;28;1911;-60
2021/10/22 02:09:18;;;;;;;;;;;15.20;99.90;;;;;;2069492;28;1119;-58
2021/10/22 02:10:37;;;;;;;;;;;15.20;99.90;;;;;;2065797;28;945;-58
2021/10/22 02:11:57;;;;;;;;;;;15.20;99.90;;;;;;2067230;28;1213;-57
2021/10/22 02:13:16;;;;;;;;;;;15.20;99.90;;;;;;2065407;28;1136;-60
2021/10/22 02:14:35;;;;;;;;;;;15.20;99.90;;;;;;2071117;28;1428;-56
2021/10/22 02:15:55;;;;;;;;;;;15.20;99.90;;;;;;2073903;28;1103;-57
2021/10/22 02:17:14;;;;;;;;;;;15.20;99.90;;;;;;2073799;28;1152;-59
2021/10/22 02:18:33;;;;;;;;;;;15.20;99.90;;;;;;2066822;28;1241;-57
2021/10/22 02:19:53;;;;;;;;;;;15.20;99.90;;;;;;2069916;28;1379;-58
2021/10/22 02:21:12;;;;;;;;;;;15.20;99.90;;;;;;2056074;28;1131;-57
2021/10/22 02:22:31;;;;;;;;;;;15.20;99.90;;;;;;2067940;28;1393;-56
2021/10/22 02:23:50;;;;;;;;;;;15.20;99.90;;;;;;2064613;28;1136;-59
2021/10/22 02:25:10;;;;;;;;;;;15.20;99.90;;;;;;2063697;28;1233;-58
2021/10/22 02:26:29;;;;;;;;;;;15.20;99.90;;;;;;2066798;28;1207;-57
2021/10/22 02:27:48;;;;;;;;;;;15.20;99.90;;;;;;2066349;28;1058;-58
2021/10/22 02:29:08;;;;;;;;;;;15.20;99.90;;;;;;2069846;28;1382;-58
2021/10/22 02:30:27;;;;;;;;;;;15.20;99.90;;;;;;2065466;28;1309;-58
2021/10/22 02:31:46;;;;;;;;;;;15.20;99.90;;;;;;2070870;28;1173;-54
2021/10/22 02:33:06;;;;;;;;;;;15.20;99.90;;;;;;2073518;28;1362;-59
2021/10/22 02:34:25;;;;;;;;;;;15.20;99.90;;;;;;2073051;28;1432;-58
2021/10/22 02:35:44;;;;;;;;;;;15.20;99.90;;;;;;2063987;28;1298;-57
2021/10/22 02:37:03;;;;;;;;;;;15.20;99.90;;;;;;2068728;28;1153;-58
2021/10/22 02:38:22;;;;;;;;;;;15.10;99.90;;;;;;2066406;28;1076;-57
2021/10/22 02:39:42;;;;;;;;;;;15.10;99.90;;;;;;2069990;28;1088;-60
2021/10/22 02:41:01;;;;;;;;;;;15.20;99.90;;;;;;2057254;28;1349;-58
2021/10/22 02:42:20;;;;;;;;;;;15.20;99.90;;;;;;2066612;28;1615;-55
2021/10/22 02:43:40;;;;;;;;;;;15.20;99.90;;;;;;2057699;28;1383;-58
2021/10/22 02:44:59;;;;;;;;;;;15.20;99.90;;;;;;2069858;28;1394;-59
2021/10/22 02:46:18;;;;;;;;;;;15.20;99.90;;;;;;2064085;28;1199;-56
2021/10/22 02:47:38;;;;;;;;;;;15.20;99.90;;;;;;2070184;28;1032;-59
2021/10/22 02:48:57;;;;;;;;;;;15.20;99.90;;;;;;2072976;28;1177;-57
2021/10/22 02:50:18;;;;;;;;;;;15.20;99.90;;;;;;2072698;28;1177;-58
2021/10/22 02:51:37;;;;;;;;;;;15.10;99.90;;;;;;2075776;28;862;-59
2021/10/22 02:52:59;;;;;;;;;;;15.10;99.90;;;;;;2075338;28;970;-58
2021/10/22 02:54:18;;;;;;;;;;;15.10;99.90;;;;;;2072207;28;1509;-58
2021/10/22 02:55:37;;;;;;;;;;;15.20;99.90;;;;;;2069584;28;1067;-58
2021/10/22 02:56:57;;;;;;;;;;;15.20;99.90;;;;;;2069349;28;1129;-59
2021/10/22 02:58:16;;;;;;;;;;;15.10;99.90;;;;;;2073799;28;1138;-58
2021/10/22 02:59:35;;;;;;;;;;;15.10;99.90;;;;;;2063469;28;1134;-59
2021/10/22 03:00:55;;;;;;;;;;;15.10;99.90;;;;;;2060842;28;1413;-58
2021/10/22 03:02:14;;;;;;;;;;;15.10;99.90;;;;;;2068836;28;1330;-58
2021/10/22 03:03:34;;;;;;;;;;;15.10;99.90;;;;;;2062332;28;1116;-58
2021/10/22 03:04:53;;;;;;;;;;;15.10;99.90;;;;;;2069956;28;1448;-58
2021/10/22 03:06:13;;;;;;;;;;;15.10;99.90;;;;;;2070664;28;1305;-59
2021/10/22 03:07:33;;;;;;;;;;;15.10;99.90;;;;;;2072610;28;1023;-59
2021/10/22 03:08:52;;;;;;;;;;;15.10;99.90;;;;;;2072248;28;1998;-58
2021/10/22 03:10:11;;;;;;;;;;;15.10;99.90;;;;;;2076774;28;1344;-57
2021/10/22 03:11:31;;;;;;;;;;;15.10;99.90;;;;;;2070636;28;1125;-60
2021/10/22 03:12:50;;;;;;;;;;;15.10;99.90;;;;;;2072366;28;1126;-59
2021/10/22 03:14:10;;;;;;;;;;;15.10;99.90;;;;;;2067090;28;1420;-59
2021/10/22 03:15:29;;;;;;;;;;;15.10;99.90;;;;;;2069798;28;1303;-59
2021/10/22 03:16:48;;;;;;;;;;;15.10;99.90;;;;;;2065221;28;1231;-59
2021/10/22 03:18:07;;;;;;;;;;;15.10;99.90;;;;;;2074205;28;1230;-58
2021/10/22 03:19:26;;;;;;;;;;;15.10;99.90;;;;;;2074987;28;1555;-58
2021/10/22 03:20:46;;;;;;;;;;;15.10;99.90;;;;;;2074037;28;898;-58
2021/10/22 03:22:05;;;;;;;;;;;15.10;99.90;;;;;;2066619;28;1125;-59
2021/10/22 03:23:24;;;;;;;;;;;15.10;99.90;;;;;;2062460;28;1344;-59
2021/10/22 03:24:43;;;;;;;;;;;15.10;99.90;;;;;;2071365;28;1416;-56
2021/10/22 03:26:02;;;;;;;;;;;15.10;99.90;;;;;;2075086;28;1134;-58
2021/10/22 03:27:23;;;;;;;;;;;15.10;99.90;;;;;;2066242;28;1180;-59
2021/10/22 03:28:42;;;;;;;;;;;15.10;99.90;;;;;;2066742;28;1915;-59
2021/10/22 03:30:02;;;;;;;;;;;15.10;99.90;;;;;;2073653;28;1364;-58
2021/10/22 03:31:21;;;;;;;;;;;15.00;99.90;;;;;;2074010;28;1207;-56
2021/10/22 03:32:40;;;;;;;;;;;15.10;99.90;;;;;;2064837;28;1053;-59
2021/10/22 03:34:02;;;;;;;;;;;15.00;99.90;;;;;;2070921;28;1322;-60
2021/10/22 03:35:21;;;;;;;;;;;15.10;99.90;;;;;;2073017;28;1354;-59
2021/10/22 03:36:41;;;;;;;;;;;15.10;99.90;;;;;;2073892;28;1115;-61
2021/10/22 03:38:00;;;;;;;;;;;15.10;99.90;;;;;;2073675;28;1385;-57
2021/10/22 03:39:19;;;;;;;;;;;15.10;99.90;;;;;;2068142;28;1205;-59
2021/10/22 03:40:39;;;;;;;;;;;15.10;99.90;;;;;;2074723;28;1230;-58
2021/10/22 03:41:58;;;;;;;;;;;15.20;99.90;;;;;;2061470;28;1415;-59
2021/10/22 03:43:17;;;;;;;;;;;15.10;99.90;;;;;;2064537;28;863;-59
2021/10/22 03:44:37;;;;;;;;;;;15.10;99.90;;;;;;2076625;28;1501;-59
2021/10/22 03:45:57;;;;;;;;;;;15.10;99.90;;;;;;2069178;28;1280;-57
2021/10/22 03:47:17;;;;;;;;;;;15.10;99.90;;;;;;2073416;28;1060;-59
2021/10/22 03:48:36;;;;;;;;;;;15.10;99.90;;;;;;2065260;28;1906;-59
2021/10/22 03:49:55;;;;;;;;;;;15.10;99.90;;;;;;2061239;28;1280;-59
2021/10/22 03:51:14;;;;;;;;;;;15.10;99.90;;;;;;2069169;28;1131;-58
2021/10/22 03:52:33;;;;;;;;;;;15.10;99.90;;;;;;2074160;28;1310;-59
2021/10/22 03:53:52;;;;;;;;;;;15.10;99.90;;;;;;2073043;28;1271;-57
2021/10/22 03:55:12;;;;;;;;;;;15.10;99.90;;;;;;2072628;28;1642;-59
2021/10/22 03:56:31;;;;;;;;;;;15.10;99.90;;;;;;2071658;28;1238;-58
2021/10/22 03:57:50;;;;;;;;;;;15.00;99.90;;;;;;2076601;28;1113;-58
2021/10/22 03:59:10;;;;;;;;;;;15.00;99.90;;;;;;2071799;28;1244;-58
2021/10/22 04:00:29;;;;;;;;;;;15.00;99.90;;;;;;2070269;28;1726;-59
2021/10/22 04:01:50;;;;;;;;;;;15.00;99.90;;;;;;2072322;28;1728;-59
2021/10/22 04:03:09;;;;;;;;;;;15.00;99.90;;;;;;2072310;28;1259;-58
2021/10/22 04:04:29;;;;;;;;;;;15.00;99.90;;;;;;2072267;28;1601;-60
2021/10/22 04:05:50;;;;;;;;;;;15.00;99.90;;;;;;2069937;28;1277;-60
2021/10/22 04:07:10;;;;;;;;;;;15.00;99.90;;;;;;2072777;28;705;-57
2021/10/22 04:08:29;;;;;;;;;;;15.00;99.90;;;;;;2072017;28;1907;-59
2021/10/22 04:09:49;;;;;;;;;;;15.00;99.90;;;;;;2064418;28;747;-58
2021/10/22 04:11:08;;;;;;;;;;;15.00;99.90;;;;;;2069875;28;682;-57
2021/10/22 04:12:27;;;;;;;;;;;15.00;99.90;;;;;;2072670;28;698;-57
2021/10/22 04:13:47;;;;;;;;;;;15.00;99.90;;;;;;2073009;28;625;-58
2021/10/22 04:15:06;;;;;;;;;;;15.00;99.90;;;;;;2074740;28;1358;-57
2021/10/22 04:16:30;;;;;;;;;;;15.00;99.90;;;;;;2074157;28;746;-58
2021/10/22 04:17:50;;;;;;;;;;;15.00;99.90;;;;;;2074087;28;718;-58
2021/10/22 04:19:09;;;;;;;;;;;15.00;99.90;;;;;;2074383;28;776;-58
2021/10/22 04:20:28;;;;;;;;;;;15.00;99.90;;;;;;2074982;28;715;-58
2021/10/22 04:21:48;;;;;;;;;;;15.00;99.90;;;;;;2066049;28;793;-54
2021/10/22 04:23:07;;;;;;;;;;;15.00;99.90;;;;;;2065900;28;732;-58
2021/10/22 04:24:27;;;;;;;;;;;15.00;99.90;;;;;;2071026;28;1506;-58
2021/10/22 04:25:46;;;;;;;;;;;15.00;99.90;;;;;;2082574;28;1068;-58
2021/10/22 04:27:05;;;;;;;;;;;14.90;99.90;;;;;;2076748;28;909;-58
2021/10/22 04:28:25;;;;;;;;;;;15.00;99.90;;;;;;2082711;28;1976;-57
2021/10/22 04:29:44;;;;;;;;;;;15.00;99.90;;;;;;2082650;28;720;-57
2021/10/22 04:31:03;;;;;;;;;;;15.00;99.90;;;;;;2082951;28;540;-57
2021/10/22 04:32:22;;;;;;;;;;;14.90;99.90;;;;;;2082861;28;681;-57
2021/10/22 04:33:41;;;;;;;;;;;14.90;99.90;;;;;;2082737;28;691;-57
2021/10/22 04:35:01;;;;;;;;;;;14.90;99.90;;;;;;2073677;28;1467;-57
2021/10/22 04:36:20;;;;;;;;;;;14.90;99.90;;;;;;2078703;28;687;-58
2021/10/22 04:40:42;;;;;;;;;;;14.90;99.90;;;;;;2082520;28;733;-59
2021/10/22 04:42:01;;;;;;;;;;;14.90;99.90;;;;;;2082457;28;728;-56
2021/10/22 04:43:21;;;;;;;;;;;14.90;99.90;;;;;;2073668;28;703;-58
2021/10/22 04:44:40;;;;;;;;;;;14.90;99.90;;;;;;2078480;28;1388;-58
2021/10/22 04:45:59;;;;;;;;;;;14.90;99.90;;;;;;2073651;28;716;-58
2021/10/22 04:47:18;;;;;;;;;;;14.90;99.90;;;;;;2070399;28;729;-58
2021/10/22 04:48:37;;;;;;;;;;;14.90;99.90;;;;;;2078798;28;1918;-58
2021/10/22 04:49:57;;;;;;;;;;;14.90;99.90;;;;;;2082292;28;712;-58
2021/10/22 04:51:16;;;;;;;;;;;14.90;99.90;;;;;;2073758;28;726;-56
2021/10/22 04:52:35;;;;;;;;;;;14.90;99.90;;;;;;2078666;28;695;-55
2021/10/22 04:53:54;;;;;;;;;;;14.90;99.90;;;;;;2073489;28;713;-57
2021/10/22 04:55:14;;;;;;;;;;;14.90;99.90;;;;;;2063281;28;1595;-57
2021/10/22 04:56:33;;;;;;;;;;;14.90;99.90;;;;;;2073003;28;1083;-59
2021/10/22 04:57:52;;;;;;;;;;;14.90;99.90;;;;;;2073495;28;933;-57
2021/10/22 04:59:11;;;;;;;;;;;14.90;99.90;;;;;;2065353;28;1017;-57
2021/10/22 05:00:31;;;;;;;;;;;14.90;99.90;;;;;;2070720;28;757;-57
2021/10/22 05:01:50;;;;;;;;;;;14.90;99.90;;;;;;2074385;28;698;-60
2021/10/22 05:03:09;;;;;;;;;;;14.90;99.90;;;;;;2065004;28;668;-58
2021/10/22 05:04:29;;;;;;;;;;;14.90;99.90;;;;;;2070649;28;1462;-57
2021/10/22 05:05:48;;;;;;;;;;;14.90;99.90;;;;;;2073523;28;704;-59
2021/10/22 05:07:08;;;;;;;;;;;14.90;99.90;;;;;;2073393;28;723;-59
2021/10/22 05:08:27;;;;;;;;;;;14.90;99.90;;;;;;2073910;28;1968;-59
2021/10/22 05:09:46;;;;;;;;;;;14.90;99.90;;;;;;2073512;28;723;-58
2021/10/22 05:11:06;;;;;;;;;;;14.90;99.90;;;;;;2057212;28;871;-57
2021/10/22 05:12:25;;;;;;;;;;;14.90;99.90;;;;;;2067667;28;727;-59
2021/10/22 05:13:44;;;;;;;;;;;14.90;99.90;;;;;;2073373;28;766;-58
2021/10/22 05:15:04;;;;;;;;;;;14.80;99.90;;;;;;2073642;28;1372;-58
2021/10/22 05:16:24;;;;;;;;;;;14.90;99.90;;;;;;2072659;28;762;-58
2021/10/22 05:17:43;;;;;;;;;;;14.90;99.90;;;;;;2073991;28;708;-58
2021/10/22 05:19:02;;;;;;;;;;;14.90;99.90;;;;;;2073433;28;992;-56
2021/10/22 05:20:21;;;;;;;;;;;14.80;99.90;;;;;;2073131;28;758;-56
2021/10/22 05:21:41;;;;;;;;;;;14.90;99.90;;;;;;2076002;28;1262;-57
2021/10/22 05:23:00;;;;;;;;;;;14.90;99.90;;;;;;2063243;28;1645;-56
2021/10/22 05:24:19;;;;;;;;;;;14.90;99.90;;;;;;2056316;28;1290;-59
2021/10/22 05:25:38;;;;;;;;;;;14.90;99.90;;;;;;2067515;28;1170;-58
2021/10/22 05:26:58;;;;;;;;;;;14.90;99.90;;;;;;2071102;28;1056;-56
2021/10/22 05:28:17;;;;;;;;;;;14.90;99.90;;;;;;2073112;28;1973;-58
2021/10/22 05:29:36;;;;;;;;;;;14.80;99.90;;;;;;2078634;28;735;-57
2021/10/22 05:30:55;;;;;;;;;;;14.80;99.90;;;;;;2082018;28;765;-54
2021/10/22 05:32:15;;;;;;;;;;;14.80;99.90;;;;;;2082074;28;782;-57
2021/10/22 05:33:34;;;;;;;;;;;14.80;99.90;;;;;;2073226;28;734;-54
2021/10/22 05:34:53;;;;;;;;;;;14.80;99.90;;;;;;2078125;28;1455;-58
2021/10/22 05:36:12;;;;;;;;;;;14.80;99.90;;;;;;2077050;28;1189;-57
2021/10/22 05:37:31;;;;;;;;;;;14.80;99.90;;;;;;2073559;28;1024;-57
2021/10/22 05:38:52;;;;;;;;;;;14.80;99.90;;;;;;2073926;28;740;-58
2021/10/22 05:40:11;;;;;;;;;;;14.80;99.90;;;;;;2065258;28;714;-58
2021/10/22 05:41:30;;;;;;;;;;;14.80;99.90;;;;;;2062102;28;827;-56
2021/10/22 05:42:49;;;;;;;;;;;14.80;99.90;;;;;;2070227;28;1075;-57
2021/10/22 05:44:10;;;;;;;;;;;14.80;99.90;;;;;;2073650;28;1369;-57
2021/10/22 05:45:29;;;;;;;;;;;14.80;99.90;;;;;;2073511;28;741;-57
2021/10/22 05:46:51;;;;;;;;;;;14.80;99.90;;;;;;2064603;28;805;-58
2021/10/22 05:48:11;;;;;;;;;;;14.80;99.90;;;;;;2070621;28;1918;-57
2021/10/22 05:49:29;;;;;;;;;;;14.80;99.90;;;;;;2065009;28;872;-56
2021/10/22 05:50:49;;;;;;;;;;;14.80;99.90;;;;;;2070480;28;744;-58
2021/10/22 05:52:08;;;;;;;;;;;14.80;99.90;;;;;;2065084;28;720;-58
2021/10/22 05:53:27;;;;;;;;;;;14.80;99.90;;;;;;2069827;28;953;-58
2021/10/22 05:54:47;;;;;;;;;;;14.80;99.90;;;;;;2073309;28;1502;-57
2021/10/22 05:56:07;;;;;;;;;;;14.80;99.90;;;;;;2075484;28;830;-56
2021/10/22 05:57:27;;;;;;;;;;;14.80;99.90;;;;;;2067541;28;1001;-58
2021/10/22 05:58:46;;;;;;;;;;;14.80;99.90;;;;;;2070046;28;724;-55
2021/10/22 06:00:05;;;;;;;;;;;14.80;99.90;;;;;;2073597;28;776;-57
2021/10/22 06:01:30;;;;;;;;;;;14.80;99.90;;;;;;2071502;28;773;-58
2021/10/22 06:02:55;;;;;;;;;;;14.80;99.90;;;;;;2070464;28;761;-58
2021/10/22 06:04:14;;;;;;;;;;;14.80;99.90;;;;;;2069790;28;1309;-60
2021/10/22 06:05:33;;;;;;;;;;;14.80;99.90;;;;;;2073291;28;719;-59
2021/10/22 06:06:52;;;;;;;;;;;14.80;99.90;;;;;;2072919;28;728;-58
2021/10/22 06:08:12;;;;;;;;;;;14.80;99.90;;;;;;2073327;28;1903;-60
2021/10/22 06:09:31;;;;;;;;;;;14.80;99.90;;;;;;2064947;28;718;-59
2021/10/22 06:10:50;;;;;;;;;;;14.80;99.90;;;;;;2064689;28;713;-59
2021/10/22 06:12:09;;;;;;;;;;;14.80;99.90;;;;;;2069294;28;1297;-58
2021/10/22 06:13:28;;;;;;;;;;;14.70;99.90;;;;;;2072928;28;1103;-60
2021/10/22 06:14:48;;;;;;;;;;;14.80;99.90;;;;;;2064802;28;1372;-60
2021/10/22 06:16:08;;;;;;;;;;;14.80;99.90;;;;;;2069681;28;967;-59
2021/10/22 06:17:27;;;;;;;;;;;14.80;99.90;;;;;;2056862;28;753;-58
2021/10/22 06:18:51;;;;;;;;;;;14.80;99.90;;;;;;2066839;28;750;-59
2021/10/22 06:20:14;;;;;;;;;;;14.80;99.90;;;;;;2073477;28;1065;-58
2021/10/22 06:21:53;;;;;;;;;;;14.70;99.90;;;;;;2073104;28;819;-59
2021/10/22 06:24:51;;;;;;;;;;;14.80;99.90;;;;;;2073984;28;1422;-59
2021/10/22 06:26:10;;;;;;;;;;;14.70;99.90;;;;;;2081061;28;995;-59
2021/10/22 06:27:29;;;;;;;;;;;14.70;99.90;;;;;;2075895;28;984;-60
2021/10/22 06:28:49;;;;;;;;;;;14.70;99.90;;;;;;2073468;28;1980;-57
2021/10/22 06:30:08;;;;;;;;;;;14.70;99.90;;;;;;2073680;28;722;-58
2021/10/22 06:31:27;;;;;;;;;;;14.70;99.90;;;;;;2073482;28;754;-58
2021/10/22 06:32:47;;;;;;;;;;;14.80;99.90;;;;;;2073371;28;715;-58
2021/10/22 06:34:06;;;;;;;;;;;14.70;99.90;;;;;;2064610;28;759;-58
2021/10/22 06:35:25;;;;;;;;;;;14.70;99.90;;;;;;2061353;28;737;-58
2021/10/22 06:36:45;;;;;;;;;;;14.70;99.90;;;;;;2062206;28;2053;-58
2021/10/22 06:38:04;;;;;;;;;;;14.70;99.90;;;;;;2072102;28;898;-58
2021/10/22 06:39:23;;;;;;;;;;;14.70;99.90;;;;;;2067966;28;1145;-59
2021/10/22 06:40:42;;;;;;;;;;;14.70;99.90;;;;;;2069832;28;788;-56
2021/10/22 06:42:02;;;;;;;;;;;14.70;99.90;;;;;;2073310;28;730;-58
2021/10/22 06:43:21;;;;;;;;;;;14.70;99.90;;;;;;2073294;28;752;-58
2021/10/22 06:44:41;;;;;;;;;;;14.70;99.90;;;;;;2064412;28;1380;-61
2021/10/22 06:46:00;;;;;;;;;;;14.70;99.90;;;;;;2069919;28;738;-56
2021/10/22 06:47:19;;;;;;;;;;;14.70;99.90;;;;;;2073002;28;745;-60
2021/10/22 06:48:39;;;;;;;;;;;14.70;99.90;;;;;;2073033;28;1906;-59
2021/10/22 06:49:58;;;;;;;;;;;14.70;99.90;;;;;;2073080;28;778;-59
2021/10/22 06:51:17;;;;;;;;;;;14.70;99.90;;;;;;2073266;28;773;-59
2021/10/22 06:52:37;;;;;;;;;;;14.70;99.90;;;;;;2073256;28;775;-59
2021/10/22 06:53:56;;;;;;;;;;;14.70;99.90;;;;;;2064484;28;766;-60
2021/10/22 06:55:16;;;;;;;;;;;14.70;99.90;;;;;;2063917;28;1068;-60
2021/10/22 06:56:35;;;;;;;;;;;14.70;99.90;;;;;;2070932;28;997;-58
2021/10/22 06:57:54;;;;;;;;;;;14.70;99.90;;;;;;2081359;28;683;-59
2021/10/22 06:59:13;;;;;;;;;;;14.70;99.90;;;;;;2079923;28;790;-59
2021/10/22 07:00:33;;;;;;;;;;;14.70;99.90;;;;;;2068114;28;797;-60
2021/10/22 07:01:52;;;;;;;;;;;14.70;99.90;;;;;;2074832;28;763;-59
2021/10/22 07:03:15;;;;;;;;;;;14.70;99.90;;;;;;2078325;28;714;-60
2021/10/22 07:04:36;;;;;;;;;;;14.70;99.90;;;;;;2080449;28;1353;-59
2021/10/22 07:07:15;;;;;;;;;;;14.70;99.90;;;;;;2068917;28;718;-58
2021/10/22 07:08:34;;;;;;;;;;;14.70;99.90;;;;;;2075867;28;1938;-59
2021/10/22 07:09:54;;;;;;;;;;;14.70;99.90;;;;;;2080349;28;753;-57
2021/10/22 07:11:14;;;;;;;;;;;14.70;99.90;;;;;;2078717;28;746;-60
2021/10/22 07:12:33;;;;;;;;;;;14.70;99.90;;;;;;2068135;28;762;-56
2021/10/22 07:13:54;;;;;;;;;;;14.70;99.90;;;;;;2074477;28;736;-58
2021/10/22 07:15:14;;;;;;;;;;;14.70;99.90;;;;;;2074970;28;1426;-58
2021/10/22 07:16:33;;;;;;;;;;;14.70;99.90;;;;;;2069285;28;786;-60
2021/10/22 07:17:55;;;;;;;;;;;14.70;99.90;;;;;;2072065;28;710;-58
2021/10/22 07:19:14;;;;;;;;;;;14.70;99.90;;;;;;2074053;28;1122;-58
2021/10/22 07:20:34;;;;;;;;;;;14.60;99.90;;;;;;2070312;28;703;-58
2021/10/22 07:21:53;;;;;;;;;;;14.70;99.90;;;;;;2060098;28;754;-60
2021/10/22 07:23:13;;;;;;;;;;;14.60;99.90;;;;;;2068544;28;730;-59
2021/10/22 07:24:32;;;;;;;;;;;14.70;99.90;;;;;;2070056;28;1511;-59
2021/10/22 07:25:51;;;;;;;;;;;14.70;99.90;;;;;;2077049;28;869;-59
2021/10/22 07:27:10;;;;;;;;;;;14.70;99.90;;;;;;2074059;28;1395;-61
2021/10/22 07:28:30;;;;;;;;;;;14.70;99.90;;;;;;2068341;28;1902;-59
2021/10/22 07:29:49;;;;;;;;;;;14.70;99.90;;;;;;2071270;28;723;-59
2021/10/22 07:31:12;;;;;;;;;;;14.70;99.90;;;;;;2060494;28;1188;-57
2021/10/22 07:32:31;;;;;;;;;;;14.60;99.90;;;;;;2067518;28;702;-59
2021/10/22 07:33:51;;;;;;;;;;;14.70;99.90;;;;;;2071481;28;642;-59
2021/10/22 07:35:10;;;;;;;;;;;14.70;99.90;;;;;;2070336;28;657;-59
2021/10/22 07:36:29;;;;;;;;;;;14.60;99.90;;;;;;2068972;28;649;-59
2021/10/22 07:37:48;;;;;;;;;;;14.60;99.90;;;;;;2063219;28;810;-55
2021/10/22 07:39:08;;;;;;;;;;;14.60;99.90;;;;;;2062006;28;606;-58
2021/10/22 07:40:27;;;;;;;;;;;14.60;99.90;;;;;;2066719;28;666;-58
2021/10/22 07:41:46;;;;;;;;;;;14.60;99.90;;;;;;2071204;28;634;-58
2021/10/22 07:43:06;;;;;;;;;;;14.60;99.90;;;;;;2070264;28;645;-60
2021/10/22 07:44:25;;;;;;;;;;;14.60;99.90;;;;;;2068775;28;1383;-58
2021/10/22 07:45:45;;;;;;;;;;;14.60;99.90;;;;;;2072731;28;705;-60
2021/10/22 07:47:04;;;;;;;;;;;14.60;99.90;;;;;;2063210;28;701;-59
2021/10/22 07:48:24;;;;;;;;;;;14.60;99.90;;;;;;2069036;28;2023;-58
2021/10/22 07:49:47;;;;;;;;;;;14.60;99.90;;;;;;2057497;28;711;-59
2021/10/22 07:51:06;;;;;;;;;;;14.60;99.90;;;;;;2068705;28;642;-58
2021/10/22 07:52:26;;;;;;;;;;;14.60;99.90;;;;;;2074319;28;677;-58
2021/10/22 07:53:45;;;;;;;;;;;14.60;99.90;;;;;;2065529;28;693;-58
2021/10/22 07:55:05;;;;;;;;;;;14.60;99.90;;;;;;2067456;28;1399;-57
2021/10/22 07:56:24;;;;;;;;;;;14.60;99.90;;;;;;2076793;28;1036;-59
2021/10/22 07:57:44;;;;;;;;;;;14.60;99.90;;;;;;2081744;28;1032;-59
2021/10/22 07:59:04;;;;;;;;;;;14.60;99.90;;;;;;2082572;28;641;-59